sensor_id;sensor_type;location;lat;lon;timestamp;temperature;humidity
48648;DHT22;34437;-33.956;151.076;2023-02-28T00:02:04;26.50;64.30
48648;DHT22;34437;-33.956;151.076;2023-02-28T00:04:27;26.50;64.30
48648;DHT22;34437;-33.956;151.076;2023-02-28T00:06:49;26.50;64.20
48648;DHT22;34437;-33.956;151.076;2023-02-28T00:09:11;26.50;64.20
48648;DHT22;34437;-33.956;151.076;2023-02-28T00:11:34;26.50;64.20
48648;DHT22;34437;-33.956;151.076;2023-02-28T00:13:56;26.60;64.20
48648;DHT22;34437;-33.956;151.076;2023-02-28T00:16:21;26.50;64.10
48648;DHT22;34437;-33.956;151.076;2023-02-28T00:18:44;26.50;64.20
48648;DHT22;34437;-33.956;151.076;2023-02-28T00:21:07;26.60;64.30
48648;DHT22;34437;-33.956;151.076;2023-02-28T00:23:30;26.50;64.30
48648;DHT22;34437;-33.956;151.076;2023-02-28T00:25:52;26.50;64.30
48648;DHT22;34437;-33.956;151.076;2023-02-28T00:28:14;26.50;64.40
48648;DHT22;34437;-33.956;151.076;2023-02-28T00:30:37;26.50;64.30
48648;DHT22;34437;-33.956;151.076;2023-02-28T00:32:59;26.60;64.60
48648;DHT22;34437;-33.956;151.076;2023-02-28T00:35:22;26.50;64.50
48648;DHT22;34437;-33.956;151.076;2023-02-28T00:37:44;26.50;64.80
48648;DHT22;34437;-33.956;151.076;2023-02-28T00:40:07;26.50;64.80
48648;DHT22;34437;-33.956;151.076;2023-02-28T00:42:31;26.50;64.90
48648;DHT22;34437;-33.956;151.076;2023-02-28T00:44:54;26.50;65.00
48648;DHT22;34437;-33.956;151.076;2023-02-28T00:47:16;26.50;65.00
48648;DHT22;34437;-33.956;151.076;2023-02-28T00:49:39;26.50;65.00
48648;DHT22;34437;-33.956;151.076;2023-02-28T00:52:01;26.50;65.00
48648;DHT22;34437;-33.956;151.076;2023-02-28T00:54:24;26.50;65.10
48648;DHT22;34437;-33.956;151.076;2023-02-28T00:56:47;26.50;65.10
48648;DHT22;34437;-33.956;151.076;2023-02-28T00:59:09;26.60;65.10
48648;DHT22;34437;-33.956;151.076;2023-02-28T01:01:32;26.60;65.10
48648;DHT22;34437;-33.956;151.076;2023-02-28T01:03:55;26.60;65.10
48648;DHT22;34437;-33.956;151.076;2023-02-28T01:06:17;26.60;65.10
48648;DHT22;34437;-33.956;151.076;2023-02-28T01:08:39;26.60;65.00
48648;DHT22;34437;-33.956;151.076;2023-02-28T01:11:10;26.60;64.90
48648;DHT22;34437;-33.956;151.076;2023-02-28T01:13:32;26.60;64.90
48648;DHT22;34437;-33.956;151.076;2023-02-28T01:15:56;26.60;64.90
48648;DHT22;34437;-33.956;151.076;2023-02-28T01:18:19;26.60;64.70
48648;DHT22;34437;-33.956;151.076;2023-02-28T01:20:41;26.60;64.60
48648;DHT22;34437;-33.956;151.076;2023-02-28T01:23:04;26.70;64.60
48648;DHT22;34437;-33.956;151.076;2023-02-28T01:25:26;26.60;64.50
48648;DHT22;34437;-33.956;151.076;2023-02-28T01:27:49;26.70;64.60
48648;DHT22;34437;-33.956;151.076;2023-02-28T01:30:11;26.70;64.60
48648;DHT22;34437;-33.956;151.076;2023-02-28T01:32:34;26.70;64.30
48648;DHT22;34437;-33.956;151.076;2023-02-28T01:34:57;26.70;64.20
48648;DHT22;34437;-33.956;151.076;2023-02-28T01:37:19;26.70;64.10
48648;DHT22;34437;-33.956;151.076;2023-02-28T01:39:41;26.80;64.00
48648;DHT22;34437;-33.956;151.076;2023-02-28T01:42:04;26.80;63.80
48648;DHT22;34437;-33.956;151.076;2023-02-28T01:47:16;26.90;63.90
48648;DHT22;34437;-33.956;151.076;2023-02-28T01:49:39;26.90;63.30
48648;DHT22;34437;-33.956;151.076;2023-02-28T01:52:02;26.90;63.50
48648;DHT22;34437;-33.956;151.076;2023-02-28T01:54:31;26.90;63.50
48648;DHT22;34437;-33.956;151.076;2023-02-28T01:57:04;27.00;63.70
48648;DHT22;34437;-33.956;151.076;2023-02-28T02:02:02;27.00;63.50
48648;DHT22;34437;-33.956;151.076;2023-02-28T02:04:27;27.00;63.50
48648;DHT22;34437;-33.956;151.076;2023-02-28T02:06:53;27.00;63.40
48648;DHT22;34437;-33.956;151.076;2023-02-28T02:09:15;27.00;63.50
48648;DHT22;34437;-33.956;151.076;2023-02-28T02:11:41;27.10;63.60
48648;DHT22;34437;-33.956;151.076;2023-02-28T02:17:11;27.10;63.50
48648;DHT22;34437;-33.956;151.076;2023-02-28T02:34:26;27.30;63.50
48648;DHT22;34437;-33.956;151.076;2023-02-28T02:39:34;27.40;63.50
48648;DHT22;34437;-33.956;151.076;2023-02-28T02:42:02;27.40;63.20
48648;DHT22;34437;-33.956;151.076;2023-02-28T02:44:31;27.40;63.00
48648;DHT22;34437;-33.956;151.076;2023-02-28T02:47:18;27.50;63.00
48648;DHT22;34437;-33.956;151.076;2023-02-28T02:49:48;27.50;62.90
48648;DHT22;34437;-33.956;151.076;2023-02-28T02:52:13;27.50;63.00
48648;DHT22;34437;-33.956;151.076;2023-02-28T02:54:38;27.50;62.70
48648;DHT22;34437;-33.956;151.076;2023-02-28T02:57:11;27.60;62.70
48648;DHT22;34437;-33.956;151.076;2023-02-28T02:59:37;27.50;62.50
48648;DHT22;34437;-33.956;151.076;2023-02-28T03:02:04;27.60;62.60
48648;DHT22;34437;-33.956;151.076;2023-02-28T03:04:32;27.60;62.70
48648;DHT22;34437;-33.956;151.076;2023-02-28T03:06:55;27.60;62.50
48648;DHT22;34437;-33.956;151.076;2023-02-28T03:09:17;27.60;62.50
48648;DHT22;34437;-33.956;151.076;2023-02-28T03:11:40;27.70;62.50
48648;DHT22;34437;-33.956;151.076;2023-02-28T03:14:06;27.80;62.60
48648;DHT22;34437;-33.956;151.076;2023-02-28T03:16:48;27.80;62.80
48648;DHT22;34437;-33.956;151.076;2023-02-28T03:22:14;27.60;58.70
48648;DHT22;34437;-33.956;151.076;2023-02-28T03:27:41;27.20;57.40
48648;DHT22;34437;-33.956;151.076;2023-02-28T03:33:01;26.80;56.80
48648;DHT22;34437;-33.956;151.076;2023-02-28T03:35:31;26.70;57.10
48648;DHT22;34437;-33.956;151.076;2023-02-28T03:38:01;26.50;56.40
48648;DHT22;34437;-33.956;151.076;2023-02-28T03:40:30;26.40;56.70
48648;DHT22;34437;-33.956;151.076;2023-02-28T03:42:58;26.30;56.30
48648;DHT22;34437;-33.956;151.076;2023-02-28T03:45:25;26.10;56.20
48648;DHT22;34437;-33.956;151.076;2023-02-28T03:47:58;26.00;56.00
48648;DHT22;34437;-33.956;151.076;2023-02-28T03:50:34;25.90;56.20
48648;DHT22;34437;-33.956;151.076;2023-02-28T03:58:24;25.60;56.80
48648;DHT22;34437;-33.956;151.076;2023-02-28T04:01:03;25.50;56.40
48648;DHT22;34437;-33.956;151.076;2023-02-28T04:03:29;25.50;56.80
48648;DHT22;34437;-33.956;151.076;2023-02-28T04:05:56;25.40;55.90
48648;DHT22;34437;-33.956;151.076;2023-02-28T04:08:19;25.30;56.10
48648;DHT22;34437;-33.956;151.076;2023-02-28T04:10:45;25.20;57.00
48648;DHT22;34437;-33.956;151.076;2023-02-28T04:13:10;25.10;56.00
48648;DHT22;34437;-33.956;151.076;2023-02-28T04:15:32;25.00;56.20
48648;DHT22;34437;-33.956;151.076;2023-02-28T04:17:55;24.90;56.70
48648;DHT22;34437;-33.956;151.076;2023-02-28T04:20:17;24.80;56.30
48648;DHT22;34437;-33.956;151.076;2023-02-28T04:22:40;24.70;56.40
48648;DHT22;34437;-33.956;151.076;2023-02-28T04:25:02;24.60;57.20
48648;DHT22;34437;-33.956;151.076;2023-02-28T04:27:25;24.60;57.10
48648;DHT22;34437;-33.956;151.076;2023-02-28T04:29:47;24.50;57.40
48648;DHT22;34437;-33.956;151.076;2023-02-28T04:32:09;24.50;56.60
48648;DHT22;34437;-33.956;151.076;2023-02-28T04:34:32;24.40;56.90
48648;DHT22;34437;-33.956;151.076;2023-02-28T04:36:55;24.30;57.10
48648;DHT22;34437;-33.956;151.076;2023-02-28T04:39:18;24.20;57.20
48648;DHT22;34437;-33.956;151.076;2023-02-28T04:41:40;24.20;56.70
48648;DHT22;34437;-33.956;151.076;2023-02-28T04:44:03;24.10;57.20
48648;DHT22;34437;-33.956;151.076;2023-02-28T04:46:25;24.10;57.00
48648;DHT22;34437;-33.956;151.076;2023-02-28T04:48:48;24.00;56.80
48648;DHT22;34437;-33.956;151.076;2023-02-28T04:51:13;24.00;57.60
48648;DHT22;34437;-33.956;151.076;2023-02-28T04:53:37;23.90;56.80
48648;DHT22;34437;-33.956;151.076;2023-02-28T04:56:00;23.80;56.80
48648;DHT22;34437;-33.956;151.076;2023-02-28T04:58:23;23.70;57.30
48648;DHT22;34437;-33.956;151.076;2023-02-28T05:00:45;23.70;57.10
48648;DHT22;34437;-33.956;151.076;2023-02-28T05:03:08;23.60;56.90
48648;DHT22;34437;-33.956;151.076;2023-02-28T05:05:31;23.60;57.30
48648;DHT22;34437;-33.956;151.076;2023-02-28T05:07:53;23.60;56.80
48648;DHT22;34437;-33.956;151.076;2023-02-28T05:10:17;23.60;57.60
48648;DHT22;34437;-33.956;151.076;2023-02-28T05:12:39;23.50;56.90
48648;DHT22;34437;-33.956;151.076;2023-02-28T05:15:02;23.50;57.00
48648;DHT22;34437;-33.956;151.076;2023-02-28T05:17:26;23.40;56.90
48648;DHT22;34437;-33.956;151.076;2023-02-28T05:19:48;23.40;57.00
48648;DHT22;34437;-33.956;151.076;2023-02-28T05:22:14;23.30;57.40
48648;DHT22;34437;-33.956;151.076;2023-02-28T05:24:38;23.20;57.10
48648;DHT22;34437;-33.956;151.076;2023-02-28T05:27:00;23.10;57.60
48648;DHT22;34437;-33.956;151.076;2023-02-28T05:29:23;23.00;57.80
48648;DHT22;34437;-33.956;151.076;2023-02-28T05:31:46;23.00;57.60
48648;DHT22;34437;-33.956;151.076;2023-02-28T05:34:08;23.10;58.30
48648;DHT22;34437;-33.956;151.076;2023-02-28T05:36:33;23.20;58.80
48648;DHT22;34437;-33.956;151.076;2023-02-28T05:38:55;23.30;59.70
48648;DHT22;34437;-33.956;151.076;2023-02-28T05:41:18;23.50;59.70
48648;DHT22;34437;-33.956;151.076;2023-02-28T05:43:41;23.60;60.00
48648;DHT22;34437;-33.956;151.076;2023-02-28T05:46:05;23.80;60.20
48648;DHT22;34437;-33.956;151.076;2023-02-28T05:48:28;23.90;60.30
48648;DHT22;34437;-33.956;151.076;2023-02-28T05:50:50;24.00;61.10
48648;DHT22;34437;-33.956;151.076;2023-02-28T05:53:13;24.20;60.70
48648;DHT22;34437;-33.956;151.076;2023-02-28T05:55:35;24.30;60.80
48648;DHT22;34437;-33.956;151.076;2023-02-28T05:57:59;24.40;60.80
48648;DHT22;34437;-33.956;151.076;2023-02-28T06:00:21;24.50;60.90
48648;DHT22;34437;-33.956;151.076;2023-02-28T06:02:44;24.60;61.00
48648;DHT22;34437;-33.956;151.076;2023-02-28T06:05:14;24.70;61.10
48648;DHT22;34437;-33.956;151.076;2023-02-28T06:07:36;24.90;62.00
48648;DHT22;34437;-33.956;151.076;2023-02-28T06:09:59;25.00;62.20
48648;DHT22;34437;-33.956;151.076;2023-02-28T06:12:22;25.10;62.40
48648;DHT22;34437;-33.956;151.076;2023-02-28T06:14:45;25.20;62.50
48648;DHT22;34437;-33.956;151.076;2023-02-28T06:17:08;25.20;62.50
48648;DHT22;34437;-33.956;151.076;2023-02-28T06:19:31;25.30;62.60
48648;DHT22;34437;-33.956;151.076;2023-02-28T06:21:54;25.40;62.60
48648;DHT22;34437;-33.956;151.076;2023-02-28T06:24:17;25.50;62.70
48648;DHT22;34437;-33.956;151.076;2023-02-28T06:26:39;25.60;62.80
48648;DHT22;34437;-33.956;151.076;2023-02-28T06:29:02;25.70;62.80
48648;DHT22;34437;-33.956;151.076;2023-02-28T06:31:24;25.70;62.70
48648;DHT22;34437;-33.956;151.076;2023-02-28T06:33:47;25.80;62.80
48648;DHT22;34437;-33.956;151.076;2023-02-28T06:36:12;25.90;62.80
48648;DHT22;34437;-33.956;151.076;2023-02-28T06:38:36;26.00;62.80
48648;DHT22;34437;-33.956;151.076;2023-02-28T06:41:00;26.00;63.20
48648;DHT22;34437;-33.956;151.076;2023-02-28T06:43:24;26.10;62.70
48648;DHT22;34437;-33.956;151.076;2023-02-28T06:45:47;26.20;62.90
48648;DHT22;34437;-33.956;151.076;2023-02-28T06:48:10;26.20;63.20
48648;DHT22;34437;-33.956;151.076;2023-02-28T06:50:32;26.30;63.00
48648;DHT22;34437;-33.956;151.076;2023-02-28T06:52:55;26.30;63.00
48648;DHT22;34437;-33.956;151.076;2023-02-28T06:55:17;26.40;63.10
48648;DHT22;34437;-33.956;151.076;2023-02-28T06:57:40;26.40;63.00
48648;DHT22;34437;-33.956;151.076;2023-02-28T07:00:06;26.50;63.60
48648;DHT22;34437;-33.956;151.076;2023-02-28T07:02:29;26.50;63.00
48648;DHT22;34437;-33.956;151.076;2023-02-28T07:04:53;26.60;63.00
48648;DHT22;34437;-33.956;151.076;2023-02-28T07:07:15;26.60;63.00
48648;DHT22;34437;-33.956;151.076;2023-02-28T07:09:38;26.60;63.00
48648;DHT22;34437;-33.956;151.076;2023-02-28T07:12:00;26.70;63.10
48648;DHT22;34437;-33.956;151.076;2023-02-28T07:14:23;26.70;63.10
48648;DHT22;34437;-33.956;151.076;2023-02-28T07:16:45;26.70;63.00
48648;DHT22;34437;-33.956;151.076;2023-02-28T07:19:08;26.80;63.40
48648;DHT22;34437;-33.956;151.076;2023-02-28T07:21:30;26.90;63.40
48648;DHT22;34437;-33.956;151.076;2023-02-28T07:23:53;26.90;63.40
48648;DHT22;34437;-33.956;151.076;2023-02-28T07:26:18;26.90;63.50
48648;DHT22;34437;-33.956;151.076;2023-02-28T07:28:42;27.00;63.70
48648;DHT22;34437;-33.956;151.076;2023-02-28T07:31:08;27.00;63.80
48648;DHT22;34437;-33.956;151.076;2023-02-28T07:33:31;27.00;63.80
48648;DHT22;34437;-33.956;151.076;2023-02-28T07:36:01;27.00;63.80
48648;DHT22;34437;-33.956;151.076;2023-02-28T07:38:23;27.10;63.80
48648;DHT22;34437;-33.956;151.076;2023-02-28T07:40:45;27.10;63.90
48648;DHT22;34437;-33.956;151.076;2023-02-28T07:43:08;27.20;64.20
48648;DHT22;34437;-33.956;151.076;2023-02-28T07:45:30;27.10;59.90
48648;DHT22;34437;-33.956;151.076;2023-02-28T07:47:56;26.90;58.00
48648;DHT22;34437;-33.956;151.076;2023-02-28T07:50:19;26.60;56.80
48648;DHT22;34437;-33.956;151.076;2023-02-28T07:52:42;26.30;55.90
48648;DHT22;34437;-33.956;151.076;2023-02-28T07:55:06;26.00;55.40
48648;DHT22;34437;-33.956;151.076;2023-02-28T07:57:28;25.80;55.30
48648;DHT22;34437;-33.956;151.076;2023-02-28T07:59:51;25.60;54.80
48648;DHT22;34437;-33.956;151.076;2023-02-28T08:02:17;25.40;54.70
48648;DHT22;34437;-33.956;151.076;2023-02-28T08:04:40;25.20;54.50
48648;DHT22;34437;-33.956;151.076;2023-02-28T08:07:02;25.10;55.70
48648;DHT22;34437;-33.956;151.076;2023-02-28T08:09:25;25.10;58.30
48648;DHT22;34437;-33.956;151.076;2023-02-28T08:11:48;25.20;59.30
48648;DHT22;34437;-33.956;151.076;2023-02-28T08:14:10;25.40;60.50
48648;DHT22;34437;-33.956;151.076;2023-02-28T08:16:32;25.50;61.50
48648;DHT22;34437;-33.956;151.076;2023-02-28T08:18:55;25.60;62.00
48648;DHT22;34437;-33.956;151.076;2023-02-28T08:21:18;25.70;62.50
48648;DHT22;34437;-33.956;151.076;2023-02-28T08:23:40;25.80;62.80
48648;DHT22;34437;-33.956;151.076;2023-02-28T08:26:03;25.90;63.10
48648;DHT22;34437;-33.956;151.076;2023-02-28T08:28:26;25.90;63.40
48648;DHT22;34437;-33.956;151.076;2023-02-28T08:30:48;26.00;63.70
48648;DHT22;34437;-33.956;151.076;2023-02-28T08:33:11;26.00;64.00
48648;DHT22;34437;-33.956;151.076;2023-02-28T08:35:36;26.10;64.10
48648;DHT22;34437;-33.956;151.076;2023-02-28T08:37:58;26.10;64.20
48648;DHT22;34437;-33.956;151.076;2023-02-28T08:40:21;26.10;64.40
48648;DHT22;34437;-33.956;151.076;2023-02-28T08:42:46;26.20;64.60
48648;DHT22;34437;-33.956;151.076;2023-02-28T08:45:09;26.20;64.60
48648;DHT22;34437;-33.956;151.076;2023-02-28T08:47:32;26.20;64.70
48648;DHT22;34437;-33.956;151.076;2023-02-28T08:49:54;26.30;64.90
48648;DHT22;34437;-33.956;151.076;2023-02-28T08:52:17;26.30;65.00
48648;DHT22;34437;-33.956;151.076;2023-02-28T08:54:39;26.40;65.00
48648;DHT22;34437;-33.956;151.076;2023-02-28T08:57:02;26.40;65.10
48648;DHT22;34437;-33.956;151.076;2023-02-28T08:59:25;26.40;65.00
48648;DHT22;34437;-33.956;151.076;2023-02-28T09:01:47;26.50;65.10
48648;DHT22;34437;-33.956;151.076;2023-02-28T09:04:10;26.50;65.10
48648;DHT22;34437;-33.956;151.076;2023-02-28T09:06:33;26.50;65.10
48648;DHT22;34437;-33.956;151.076;2023-02-28T09:08:59;26.60;65.20
48648;DHT22;34437;-33.956;151.076;2023-02-28T09:11:22;26.60;65.40
48648;DHT22;34437;-33.956;151.076;2023-02-28T09:13:45;26.60;65.30
48648;DHT22;34437;-33.956;151.076;2023-02-28T09:16:11;26.60;65.20
48648;DHT22;34437;-33.956;151.076;2023-02-28T09:18:35;26.70;65.30
48648;DHT22;34437;-33.956;151.076;2023-02-28T09:21:06;26.70;65.30
48648;DHT22;34437;-33.956;151.076;2023-02-28T09:23:29;26.70;65.50
48648;DHT22;34437;-33.956;151.076;2023-02-28T09:25:54;26.70;65.50
48648;DHT22;34437;-33.956;151.076;2023-02-28T09:28:17;26.70;65.50
48648;DHT22;34437;-33.956;151.076;2023-02-28T09:30:39;26.70;65.40
48648;DHT22;34437;-33.956;151.076;2023-02-28T09:33:02;26.70;65.30
48648;DHT22;34437;-33.956;151.076;2023-02-28T09:35:25;26.70;65.20
48648;DHT22;34437;-33.956;151.076;2023-02-28T09:37:51;26.80;65.30
48648;DHT22;34437;-33.956;151.076;2023-02-28T09:40:14;26.80;65.30
48648;DHT22;34437;-33.956;151.076;2023-02-28T09:42:39;26.80;65.40
48648;DHT22;34437;-33.956;151.076;2023-02-28T09:45:13;26.80;65.40
48648;DHT22;34437;-33.956;151.076;2023-02-28T09:47:45;26.80;65.40
48648;DHT22;34437;-33.956;151.076;2023-02-28T09:50:28;26.80;65.50
48648;DHT22;34437;-33.956;151.076;2023-02-28T09:52:53;26.80;65.70
48648;DHT22;34437;-33.956;151.076;2023-02-28T09:55:30;26.80;65.70
48648;DHT22;34437;-33.956;151.076;2023-02-28T09:57:56;26.80;65.70
48648;DHT22;34437;-33.956;151.076;2023-02-28T10:00:40;26.90;65.80
48648;DHT22;34437;-33.956;151.076;2023-02-28T10:05:55;26.90;65.80
48648;DHT22;34437;-33.956;151.076;2023-02-28T10:08:57;26.90;65.70
48648;DHT22;34437;-33.956;151.076;2023-02-28T10:11:16;26.90;65.80
48648;DHT22;34437;-33.956;151.076;2023-02-28T10:16:48;27.00;65.90
48648;DHT22;34437;-33.956;151.076;2023-02-28T10:19:27;27.00;65.90
48648;DHT22;34437;-33.956;151.076;2023-02-28T10:22:13;27.00;66.00
48648;DHT22;34437;-33.956;151.076;2023-02-28T10:24:47;27.00;66.00
48648;DHT22;34437;-33.956;151.076;2023-02-28T10:27:22;26.90;66.00
48648;DHT22;34437;-33.956;151.076;2023-02-28T10:29:46;27.00;66.20
48648;DHT22;34437;-33.956;151.076;2023-02-28T10:32:13;27.00;66.20
48648;DHT22;34437;-33.956;151.076;2023-02-28T10:34:36;27.00;66.80
48648;DHT22;34437;-33.956;151.076;2023-02-28T10:36:59;27.00;66.20
48648;DHT22;34437;-33.956;151.076;2023-02-28T10:39:43;27.00;66.10
48648;DHT22;34437;-33.956;151.076;2023-02-28T10:42:23;27.00;66.10
48648;DHT22;34437;-33.956;151.076;2023-02-28T10:44:47;27.00;66.20
48648;DHT22;34437;-33.956;151.076;2023-02-28T10:47:15;27.00;66.10
48648;DHT22;34437;-33.956;151.076;2023-02-28T10:49:48;27.00;66.10
48648;DHT22;34437;-33.956;151.076;2023-02-28T10:52:10;27.10;66.20
48648;DHT22;34437;-33.956;151.076;2023-02-28T10:54:35;27.10;66.30
48648;DHT22;34437;-33.956;151.076;2023-02-28T10:57:08;27.10;66.30
48648;DHT22;34437;-33.956;151.076;2023-02-28T10:59:31;27.10;66.40
48648;DHT22;34437;-33.956;151.076;2023-02-28T11:01:54;27.10;66.40
48648;DHT22;34437;-33.956;151.076;2023-02-28T11:06:43;27.10;66.60
48648;DHT22;34437;-33.956;151.076;2023-02-28T11:10:01;27.00;66.50
48648;DHT22;34437;-33.956;151.076;2023-02-28T11:11:58;27.10;66.60
48648;DHT22;34437;-33.956;151.076;2023-02-28T11:14:24;27.10;66.70
48648;DHT22;34437;-33.956;151.076;2023-02-28T11:16:47;27.10;66.80
48648;DHT22;34437;-33.956;151.076;2023-02-28T11:19:25;27.10;66.90
48648;DHT22;34437;-33.956;151.076;2023-02-28T11:21:59;27.10;66.90
48648;DHT22;34437;-33.956;151.076;2023-02-28T11:24:30;27.10;66.80
48648;DHT22;34437;-33.956;151.076;2023-02-28T11:26:53;27.10;66.80
48648;DHT22;34437;-33.956;151.076;2023-02-28T11:29:28;27.10;66.80
48648;DHT22;34437;-33.956;151.076;2023-02-28T11:34:31;27.20;66.90
48648;DHT22;34437;-33.956;151.076;2023-02-28T11:36:56;27.20;67.00
48648;DHT22;34437;-33.956;151.076;2023-02-28T11:39:19;27.20;67.00
48648;DHT22;34437;-33.956;151.076;2023-02-28T11:44:47;27.20;67.20
48648;DHT22;34437;-33.956;151.076;2023-02-28T11:50:25;27.20;67.30
48648;DHT22;34437;-33.956;151.076;2023-02-28T11:55:39;27.20;67.30
48648;DHT22;34437;-33.956;151.076;2023-02-28T12:09:34;27.20;67.90
48648;DHT22;34437;-33.956;151.076;2023-02-28T12:27:25;27.30;68.60
48648;DHT22;34437;-33.956;151.076;2023-02-28T12:30:03;27.40;68.00
48648;DHT22;34437;-33.956;151.076;2023-02-28T12:32:34;27.40;67.90
48648;DHT22;34437;-33.956;151.076;2023-02-28T12:37:41;27.40;67.90
48648;DHT22;34437;-33.956;151.076;2023-02-28T12:40:13;27.40;68.00
48648;DHT22;34437;-33.956;151.076;2023-02-28T12:42:41;27.40;68.00
48648;DHT22;34437;-33.956;151.076;2023-02-28T12:45:22;27.40;67.90
48648;DHT22;34437;-33.956;151.076;2023-02-28T12:47:48;27.40;67.80
48648;DHT22;34437;-33.956;151.076;2023-02-28T12:50:12;27.40;67.80
48648;DHT22;34437;-33.956;151.076;2023-02-28T12:58:33;27.40;68.50
48648;DHT22;34437;-33.956;151.076;2023-02-28T13:09:14;27.50;67.80
48648;DHT22;34437;-33.956;151.076;2023-02-28T13:11:44;27.50;67.80
48648;DHT22;34437;-33.956;151.076;2023-02-28T13:19:22;27.50;67.90
48648;DHT22;34437;-33.956;151.076;2023-02-28T13:21:45;27.60;67.90
48648;DHT22;34437;-33.956;151.076;2023-02-28T13:24:09;27.50;67.70
48648;DHT22;34437;-33.956;151.076;2023-02-28T13:29:04;27.60;67.80
48648;DHT22;34437;-33.956;151.076;2023-02-28T13:39:55;27.70;67.80
48648;DHT22;34437;-33.956;151.076;2023-02-28T13:47:41;27.70;67.80
48648;DHT22;34437;-33.956;151.076;2023-02-28T14:06:55;27.70;67.90
48648;DHT22;34437;-33.956;151.076;2023-02-28T14:09:28;27.70;67.80
48648;DHT22;34437;-33.956;151.076;2023-02-28T14:11:53;27.70;67.70
48648;DHT22;34437;-33.956;151.076;2023-02-28T14:16:59;27.80;67.70
48648;DHT22;34437;-33.956;151.076;2023-02-28T14:19:32;27.80;67.70
48648;DHT22;34437;-33.956;151.076;2023-02-28T14:27:03;27.70;67.80
48648;DHT22;34437;-33.956;151.076;2023-02-28T14:32:10;27.70;67.70
48648;DHT22;34437;-33.956;151.076;2023-02-28T14:34:44;27.80;67.80
48648;DHT22;34437;-33.956;151.076;2023-02-28T14:37:14;27.80;67.80
48648;DHT22;34437;-33.956;151.076;2023-02-28T14:39:41;27.80;67.80
48648;DHT22;34437;-33.956;151.076;2023-02-28T14:42:27;27.80;67.80
48648;DHT22;34437;-33.956;151.076;2023-02-28T14:44:54;27.70;67.70
48648;DHT22;34437;-33.956;151.076;2023-02-28T14:47:18;27.70;67.70
48648;DHT22;34437;-33.956;151.076;2023-02-28T14:49:45;27.80;67.80
48648;DHT22;34437;-33.956;151.076;2023-02-28T14:52:22;27.80;67.90
48648;DHT22;34437;-33.956;151.076;2023-02-28T14:54:45;27.80;67.90
48648;DHT22;34437;-33.956;151.076;2023-02-28T14:57:22;27.80;67.90
48648;DHT22;34437;-33.956;151.076;2023-02-28T14:59:44;27.80;67.80
48648;DHT22;34437;-33.956;151.076;2023-02-28T15:02:21;27.90;67.80
48648;DHT22;34437;-33.956;151.076;2023-02-28T15:04:53;27.80;67.70
48648;DHT22;34437;-33.956;151.076;2023-02-28T15:07:16;27.80;67.60
48648;DHT22;34437;-33.956;151.076;2023-02-28T15:09:38;27.80;67.60
48648;DHT22;34437;-33.956;151.076;2023-02-28T15:12:02;27.90;67.70
48648;DHT22;34437;-33.956;151.076;2023-02-28T15:14:25;27.80;67.50
48648;DHT22;34437;-33.956;151.076;2023-02-28T15:16:57;27.80;67.50
48648;DHT22;34437;-33.956;151.076;2023-02-28T15:19:28;27.90;67.60
48648;DHT22;34437;-33.956;151.076;2023-02-28T15:21:58;27.80;67.60
48648;DHT22;34437;-33.956;151.076;2023-02-28T15:24:31;27.80;67.60
48648;DHT22;34437;-33.956;151.076;2023-02-28T15:26:59;27.80;67.60
48648;DHT22;34437;-33.956;151.076;2023-02-28T15:29:23;27.90;67.70
48648;DHT22;34437;-33.956;151.076;2023-02-28T15:31:50;27.90;67.70
48648;DHT22;34437;-33.956;151.076;2023-02-28T15:34:34;27.90;67.60
48648;DHT22;34437;-33.956;151.076;2023-02-28T15:36:57;27.80;67.60
48648;DHT22;34437;-33.956;151.076;2023-02-28T15:39:25;27.90;67.60
48648;DHT22;34437;-33.956;151.076;2023-02-28T15:41:48;27.90;68.20
48648;DHT22;34437;-33.956;151.076;2023-02-28T15:46:57;27.90;67.60
48648;DHT22;34437;-33.956;151.076;2023-02-28T15:49:21;27.90;67.60
48648;DHT22;34437;-33.956;151.076;2023-02-28T15:51:45;27.80;67.50
48648;DHT22;34437;-33.956;151.076;2023-02-28T15:54:12;27.80;67.50
48648;DHT22;34437;-33.956;151.076;2023-02-28T15:57:03;27.90;67.80
48648;DHT22;34437;-33.956;151.076;2023-02-28T15:59:27;27.90;67.80
48648;DHT22;34437;-33.956;151.076;2023-02-28T16:04:34;27.90;67.70
48648;DHT22;34437;-33.956;151.076;2023-02-28T16:07:00;27.90;67.70
48648;DHT22;34437;-33.956;151.076;2023-02-28T16:09:23;27.90;67.60
48648;DHT22;34437;-33.956;151.076;2023-02-28T16:11:48;27.90;67.60
48648;DHT22;34437;-33.956;151.076;2023-02-28T16:14:17;27.90;67.60
48648;DHT22;34437;-33.956;151.076;2023-02-28T16:16:44;27.90;67.60
48648;DHT22;34437;-33.956;151.076;2023-02-28T16:19:08;27.90;67.60
48648;DHT22;34437;-33.956;151.076;2023-02-28T16:21:30;27.90;67.60
48648;DHT22;34437;-33.956;151.076;2023-02-28T16:23:52;27.90;67.60
48648;DHT22;34437;-33.956;151.076;2023-02-28T16:26:20;27.90;67.70
48648;DHT22;34437;-33.956;151.076;2023-02-28T16:28:44;27.90;67.80
48648;DHT22;34437;-33.956;151.076;2023-02-28T16:31:07;27.90;67.70
48648;DHT22;34437;-33.956;151.076;2023-02-28T16:33:32;27.90;67.70
48648;DHT22;34437;-33.956;151.076;2023-02-28T16:35:55;27.90;67.70
48648;DHT22;34437;-33.956;151.076;2023-02-28T16:38:17;27.90;67.70
48648;DHT22;34437;-33.956;151.076;2023-02-28T16:40:41;27.90;67.80
48648;DHT22;34437;-33.956;151.076;2023-02-28T16:43:18;27.90;67.80
48648;DHT22;34437;-33.956;151.076;2023-02-28T16:45:43;27.90;67.80
48648;DHT22;34437;-33.956;151.076;2023-02-28T16:48:05;27.90;67.80
48648;DHT22;34437;-33.956;151.076;2023-02-28T16:50:29;27.90;67.80
48648;DHT22;34437;-33.956;151.076;2023-02-28T16:52:55;27.90;67.70
48648;DHT22;34437;-33.956;151.076;2023-02-28T16:55:18;27.90;67.70
48648;DHT22;34437;-33.956;151.076;2023-02-28T16:57:41;27.90;67.70
48648;DHT22;34437;-33.956;151.076;2023-02-28T17:00:05;27.90;67.70
48648;DHT22;34437;-33.956;151.076;2023-02-28T17:02:29;27.90;67.70
48648;DHT22;34437;-33.956;151.076;2023-02-28T17:04:52;27.90;67.70
48648;DHT22;34437;-33.956;151.076;2023-02-28T17:07:15;27.90;67.60
48648;DHT22;34437;-33.956;151.076;2023-02-28T17:09:38;27.90;67.60
48648;DHT22;34437;-33.956;151.076;2023-02-28T17:12:00;27.90;67.60
48648;DHT22;34437;-33.956;151.076;2023-02-28T17:14:23;27.80;67.50
48648;DHT22;34437;-33.956;151.076;2023-02-28T17:16:45;27.90;67.60